Time;durP1;ratioP1;P1;durP2;ratioP2;P2;SDS_P1;SDS_P2;PMS_P1;PMS_P2;Temp;Humidity;BMP_temperature;BMP_pressure;BME280_temperature;BME280_humidity;BME280_pressure;Samples;Min_cycle;Max_cycle;Signal;HPM_P1;HPM_P2
2021/04/27 00:01:51;;;;;;;5.50;2.97;;;;;;;;;;5093004;28;20892;-84
2021/04/27 00:04:17;;;;;;;5.60;3.35;;;;;;;;;;5092995;28;20361;-83
2021/04/27 00:06:43;;;;;;;3.83;3.08;;;;;;;;;;5092830;28;20451;-84
2021/04/27 00:09:09;;;;;;;4.57;3.10;;;;;;;;;;5092997;28;20471;-84
2021/04/27 00:11:36;;;;;;;6.07;3.03;;;;;;;;;;5093044;28;20464;-83
2021/04/27 00:14:02;;;;;;;5.72;3.05;;;;;;;;;;5074639;28;20368;-84
2021/04/27 00:16:28;;;;;;;4.70;3.03;;;;;;;;;;5091511;28;20384;-84
2021/04/27 00:18:54;;;;;;;6.45;3.17;;;;;;;;;;5092682;28;20733;-83
2021/04/27 00:21:20;;;;;;;5.47;2.80;;;;;;;;;;5093056;28;20385;-84
2021/04/27 00:23:46;;;;;;;4.83;2.83;;;;;;;;;;5074594;28;20443;-83
2021/04/27 00:26:12;;;;;;;4.80;2.97;;;;;;;;;;5074602;28;20366;-83
2021/04/27 00:28:38;;;;;;;3.90;2.95;;;;;;;;;;5092515;28;20439;-84
2021/04/27 00:31:04;;;;;;;3.67;3.13;;;;;;;;;;5074571;28;20933;-83
2021/04/27 00:33:30;;;;;;;5.78;3.30;;;;;;;;;;5074240;28;20455;-84
2021/04/27 00:35:56;;;;;;;4.63;3.10;;;;;;;;;;5074109;28;20785;-83
2021/04/27 00:38:22;;;;;;;4.93;3.00;;;;;;;;;;5074349;28;20368;-83
2021/04/27 00:40:48;;;;;;;4.07;2.85;;;;;;;;;;5092589;28;20372;-83
2021/04/27 00:43:14;;;;;;;3.90;2.90;;;;;;;;;;5092563;28;20364;-84
2021/04/27 00:45:40;;;;;;;4.35;2.83;;;;;;;;;;5074467;28;20488;-83
2021/04/27 00:48:06;;;;;;;3.88;2.90;;;;;;;;;;5092452;28;20415;-84
2021/04/27 00:50:37;;;;;;;4.35;3.08;;;;;;;;;;5092733;28;20389;-84
2021/04/27 00:53:04;;;;;;;5.30;3.35;;;;;;;;;;5074856;28;20395;-83
2021/04/27 00:55:30;;;;;;;5.43;3.60;;;;;;;;;;5092381;28;20375;-83
2021/04/27 00:57:59;;;;;;;7.32;3.50;;;;;;;;;;5073700;28;20896;-83
2021/04/27 01:00:27;;;;;;;4.85;3.50;;;;;;;;;;5073844;28;20373;-84
2021/04/27 01:02:53;;;;;;;5.28;3.40;;;;;;;;;;5091948;28;20396;-83
2021/04/27 01:05:22;;;;;;;5.10;3.30;;;;;;;;;;5092203;28;20437;-84
2021/04/27 01:07:48;;;;;;;5.28;3.85;;;;;;;;;;5073903;28;20365;-83
2021/04/27 01:10:16;;;;;;;4.10;3.47;;;;;;;;;;5092275;28;20369;-83
2021/04/27 01:12:45;;;;;;;5.03;3.42;;;;;;;;;;5091956;28;20364;-83
2021/04/27 01:15:17;;;;;;;4.75;3.53;;;;;;;;;;5093182;28;20378;-83
2021/04/27 01:17:44;;;;;;;6.30;3.70;;;;;;;;;;5094741;28;20364;-83
2021/04/27 01:20:25;;;;;;;5.75;3.67;;;;;;;;;;5076255;28;20902;-83
2021/04/27 01:22:54;;;;;;;6.60;3.63;;;;;;;;;;5094260;28;20400;-83
2021/04/27 01:25:33;;;;;;;6.57;3.70;;;;;;;;;;5094262;28;20360;-83
2021/04/27 01:27:59;;;;;;;6.37;3.50;;;;;;;;;;5090939;28;20356;-83
2021/04/27 01:30:26;;;;;;;4.03;3.50;;;;;;;;;;5091549;28;20447;-83
2021/04/27 01:32:52;;;;;;;4.55;3.70;;;;;;;;;;5091288;28;20407;-83
2021/04/27 01:35:19;;;;;;;5.78;3.63;;;;;;;;;;5091389;28;20422;-83
2021/04/27 01:37:45;;;;;;;6.00;3.90;;;;;;;;;;5073333;28;20369;-82
2021/04/27 01:40:12;;;;;;;5.83;3.80;;;;;;;;;;5073068;28;20467;-83
2021/04/27 01:42:38;;;;;;;6.53;4.15;;;;;;;;;;5091227;28;20400;-84
2021/04/27 01:45:06;;;;;;;4.75;3.63;;;;;;;;;;5091380;28;20368;-83
2021/04/27 01:47:32;;;;;;;6.40;4.10;;;;;;;;;;5091611;28;20831;-83
2021/04/27 01:49:58;;;;;;;5.03;3.67;;;;;;;;;;5073603;28;20375;-83
2021/04/27 01:52:24;;;;;;;6.20;3.70;;;;;;;;;;5091478;28;20847;-83
2021/04/27 01:54:50;;;;;;;6.60;3.97;;;;;;;;;;5091354;28;20386;-83
2021/04/27 01:57:20;;;;;;;4.70;3.97;;;;;;;;;;5091223;28;20467;-83
2021/04/27 01:59:46;;;;;;;5.37;3.97;;;;;;;;;;5091472;28;20365;-83
2021/04/27 02:02:12;;;;;;;5.50;3.92;;;;;;;;;;5091414;28;20454;-83
2021/04/27 02:04:38;;;;;;;5.43;4.18;;;;;;;;;;5091330;28;20383;-84
2021/04/27 02:07:04;;;;;;;6.53;4.03;;;;;;;;;;5090838;28;20850;-84
2021/04/27 02:09:31;;;;;;;6.45;3.92;;;;;;;;;;5072560;28;20375;-84
2021/04/27 02:11:59;;;;;;;8.50;4.10;;;;;;;;;;5091115;28;20457;-84
2021/04/27 02:14:29;;;;;;;6.25;3.80;;;;;;;;;;5090478;28;20880;-84
2021/04/27 02:17:06;;;;;;;5.05;3.83;;;;;;;;;;5091002;28;20364;-83
2021/04/27 02:19:32;;;;;;;5.68;3.90;;;;;;;;;;5091056;28;20368;-84
2021/04/27 02:22:03;;;;;;;4.85;4.28;;;;;;;;;;5072742;28;20391;-84
2021/04/27 02:24:30;;;;;;;4.30;3.90;;;;;;;;;;5091116;28;20356;-83
2021/04/27 02:26:56;;;;;;;7.50;4.50;;;;;;;;;;5090824;28;20451;-83
2021/04/27 02:29:23;;;;;;;6.07;4.15;;;;;;;;;;5072662;28;20369;-84
2021/04/27 02:31:50;;;;;;;4.35;3.78;;;;;;;;;;5072310;28;20758;-84
2021/04/27 02:34:20;;;;;;;4.77;3.90;;;;;;;;;;5090141;28;20361;-84
2021/04/27 02:36:46;;;;;;;6.78;3.72;;;;;;;;;;5090735;28;20839;-83
2021/04/27 02:39:12;;;;;;;5.53;3.93;;;;;;;;;;5089932;28;20364;-83
2021/04/27 02:41:39;;;;;;;5.70;3.80;;;;;;;;;;5071837;28;20392;-83
2021/04/27 02:44:08;;;;;;;6.07;4.43;;;;;;;;;;5090256;28;20450;-83
2021/04/27 02:46:34;;;;;;;5.60;3.70;;;;;;;;;;5090688;28;20360;-83
2021/04/27 02:49:00;;;;;;;6.30;4.10;;;;;;;;;;5072014;28;20369;-84
2021/04/27 02:51:26;;;;;;;5.72;4.35;;;;;;;;;;5090457;28;20365;-83
2021/04/27 02:53:52;;;;;;;5.35;3.90;;;;;;;;;;5090505;28;20380;-83
2021/04/27 02:56:18;;;;;;;6.35;4.22;;;;;;;;;;5090604;28;20365;-84
2021/04/27 02:58:44;;;;;;;5.63;3.85;;;;;;;;;;5090180;28;20367;-83
2021/04/27 03:01:11;;;;;;;6.23;3.90;;;;;;;;;;5071831;28;20907;-83
2021/04/27 03:03:37;;;;;;;5.67;4.20;;;;;;;;;;5090215;28;20371;-82
2021/04/27 03:06:03;;;;;;;4.55;3.80;;;;;;;;;;5090377;28;20445;-83
2021/04/27 03:08:29;;;;;;;5.53;4.28;;;;;;;;;;5090107;28;20360;-83
2021/04/27 03:10:55;;;;;;;7.88;4.40;;;;;;;;;;5072491;28;20404;-83
2021/04/27 03:13:21;;;;;;;7.07;4.85;;;;;;;;;;5090424;28;20521;-83
2021/04/27 03:15:48;;;;;;;11.25;4.35;;;;;;;;;;5072115;28;20910;-83
2021/04/27 03:18:14;;;;;;;9.32;4.65;;;;;;;;;;5089865;28;20407;-82
2021/04/27 03:20:42;;;;;;;6.35;4.25;;;;;;;;;;5090314;28;20356;-82
2021/04/27 03:23:08;;;;;;;5.93;4.65;;;;;;;;;;5072453;28;20410;-83
2021/04/27 03:25:35;;;;;;;7.68;4.85;;;;;;;;;;5090221;28;20477;-83
2021/04/27 03:28:04;;;;;;;6.40;4.45;;;;;;;;;;5071702;28;20866;-83
2021/04/27 03:30:31;;;;;;;6.33;4.53;;;;;;;;;;5089761;28;21341;-83
2021/04/27 03:32:57;;;;;;;6.20;4.65;;;;;;;;;;5089928;28;20893;-83
2021/04/27 03:35:23;;;;;;;8.25;4.65;;;;;;;;;;5071558;28;20368;-83
2021/04/27 03:37:49;;;;;;;7.73;5.37;;;;;;;;;;5089777;28;20865;-82
2021/04/27 03:40:15;;;;;;;6.95;4.90;;;;;;;;;;5089899;28;20360;-83
2021/04/27 03:42:41;;;;;;;6.63;4.80;;;;;;;;;;5090036;28;21106;-83
2021/04/27 03:45:08;;;;;;;5.53;4.80;;;;;;;;;;5071934;28;20461;-83
2021/04/27 03:47:34;;;;;;;7.65;4.65;;;;;;;;;;5071731;28;20376;-83
2021/04/27 03:50:00;;;;;;;5.45;4.30;;;;;;;;;;5090351;28;20438;-83
2021/04/27 03:52:26;;;;;;;6.93;5.07;;;;;;;;;;5075281;28;20367;-83
2021/04/27 03:54:52;;;;;;;34.40;7.55;;;;;;;;;;5094072;28;20361;-83
2021/04/27 03:57:17;;;;;;;25.45;6.53;;;;;;;;;;5075438;28;20368;-83
2021/04/27 03:59:43;;;;;;;8.38;4.30;;;;;;;;;;5093394;28;20414;-83
2021/04/27 04:02:09;;;;;;;6.33;4.20;;;;;;;;;;5093352;28;20825;-83
2021/04/27 04:04:36;;;;;;;6.78;4.63;;;;;;;;;;5093544;28;20364;-83
2021/04/27 04:07:02;;;;;;;6.05;4.50;;;;;;;;;;5075115;28;20380;-83
2021/04/27 04:09:28;;;;;;;6.32;4.25;;;;;;;;;;5075251;28;20365;-83
2021/04/27 04:11:54;;;;;;;6.82;4.60;;;;;;;;;;5075211;28;20384;-83
2021/04/27 04:14:20;;;;;;;8.02;4.60;;;;;;;;;;5093795;28;20377;-83
2021/04/27 04:16:46;;;;;;;6.05;4.95;;;;;;;;;;5076366;28;20379;-83
2021/04/27 04:19:12;;;;;;;5.75;4.00;;;;;;;;;;5076164;28;20376;-83
2021/04/27 04:21:39;;;;;;;5.45;4.10;;;;;;;;;;5094650;28;20395;-83
2021/04/27 04:24:05;;;;;;;7.83;4.30;;;;;;;;;;5076416;28;20373;-83
2021/04/27 04:26:31;;;;;;;7.57;4.40;;;;;;;;;;5075529;28;20850;-83
2021/04/27 04:28:57;;;;;;;11.32;4.03;;;;;;;;;;5092650;28;20361;-83
2021/04/27 04:31:23;;;;;;;15.15;4.70;;;;;;;;;;5092955;28;20422;-83
2021/04/27 04:33:49;;;;;;;15.38;4.72;;;;;;;;;;5092968;28;20364;-83
2021/04/27 04:36:15;;;;;;;13.10;4.65;;;;;;;;;;5092675;28;20372;-83
2021/04/27 04:38:41;;;;;;;12.95;4.57;;;;;;;;;;5074572;28;20385;-83
2021/04/27 04:41:08;;;;;;;13.23;5.03;;;;;;;;;;5092342;28;20478;-83
2021/04/27 04:43:34;;;;;;;9.38;3.83;;;;;;;;;;5074060;28;20749;-83
2021/04/27 04:46:00;;;;;;;8.30;3.70;;;;;;;;;;5074335;28;20391;-83
2021/04/27 04:48:26;;;;;;;4.88;3.40;;;;;;;;;;5092274;28;20360;-83
2021/04/27 04:50:52;;;;;;;8.15;3.60;;;;;;;;;;5092569;28;20391;-83
2021/04/27 04:53:18;;;;;;;4.43;3.13;;;;;;;;;;5074452;28;20357;-83
2021/04/27 04:55:44;;;;;;;6.95;3.40;;;;;;;;;;5074289;28;20924;-83
2021/04/27 04:58:10;;;;;;;4.40;3.08;;;;;;;;;;5074093;28;20373;-83
2021/04/27 05:00:36;;;;;;;5.28;3.33;;;;;;;;;;5074106;28;20372;-83
2021/04/27 05:03:02;;;;;;;5.03;3.28;;;;;;;;;;5091549;28;20392;-83
2021/04/27 05:05:28;;;;;;;4.82;2.92;;;;;;;;;;5098016;28;20365;-83
2021/04/27 05:08:02;;;;;;;4.83;3.00;;;;;;;;;;5096301;28;20356;-83
2021/04/27 05:10:28;;;;;;;4.32;2.97;;;;;;;;;;5096552;28;20357;-83
2021/04/27 05:12:54;;;;;;;4.85;3.00;;;;;;;;;;5095457;28;20365;-83
2021/04/27 05:15:21;;;;;;;11.27;3.72;;;;;;;;;;5093603;28;20360;-83
2021/04/27 05:17:47;;;;;;;4.35;3.10;;;;;;;;;;5073797;28;20376;-84
2021/04/27 05:20:13;;;;;;;3.72;2.58;;;;;;;;;;5073437;28;20380;-84
2021/04/27 05:22:40;;;;;;;5.53;2.85;;;;;;;;;;5073424;28;20755;-84
2021/04/27 05:25:06;;;;;;;50.88;7.25;;;;;;;;;;5073577;28;20371;-84
2021/04/27 05:27:32;;;;;;;5.82;3.28;;;;;;;;;;5091520;28;20360;-84
2021/04/27 05:29:58;;;;;;;4.47;2.80;;;;;;;;;;5073395;28;20395;-84
2021/04/27 05:32:24;;;;;;;28.63;4.95;;;;;;;;;;5073574;28;20862;-83
2021/04/27 05:34:50;;;;;;;9.00;3.47;;;;;;;;;;5091711;28;20471;-84
2021/04/27 05:37:16;;;;;;;63.13;8.52;;;;;;;;;;5092039;28;20372;-84
2021/04/27 05:39:42;;;;;;;26.02;5.07;;;;;;;;;;5091832;28;20369;-84
2021/04/27 05:42:08;;;;;;;5.50;3.20;;;;;;;;;;5091947;28;20392;-85
2021/04/27 05:44:34;;;;;;;5.85;3.60;;;;;;;;;;5073641;28;20373;-85
2021/04/27 05:47:00;;;;;;;5.50;3.92;;;;;;;;;;5092077;28;20356;-85
2021/04/27 05:49:26;;;;;;;30.58;6.00;;;;;;;;;;5092017;28;20438;-84
2021/04/27 05:51:52;;;;;;;7.60;4.00;;;;;;;;;;5073509;28;20874;-85
2021/04/27 05:54:18;;;;;;;13.57;4.32;;;;;;;;;;5091560;28;20372;-83
2021/04/27 05:56:44;;;;;;;6.50;3.50;;;;;;;;;;5091910;28;20441;-84
2021/04/27 05:59:10;;;;;;;5.53;3.28;;;;;;;;;;5072607;28;20850;-84
2021/04/27 06:01:37;;;;;;;4.60;3.47;;;;;;;;;;5077670;28;20745;-85
2021/04/27 06:04:03;;;;;;;4.93;3.38;;;;;;;;;;5092450;28;20368;-84
2021/04/27 06:06:29;;;;;;;4.43;3.40;;;;;;;;;;5091358;28;20403;-83
2021/04/27 06:08:55;;;;;;;5.10;3.20;;;;;;;;;;5091680;28;20750;-86
2021/04/27 06:11:21;;;;;;;5.95;3.30;;;;;;;;;;5091065;28;20388;-84
2021/04/27 06:13:47;;;;;;;5.45;3.13;;;;;;;;;;5073639;28;20731;-84
2021/04/27 06:16:13;;;;;;;3.88;3.20;;;;;;;;;;5072030;28;20889;-84
2021/04/27 06:18:39;;;;;;;15.93;4.13;;;;;;;;;;5090277;28;20402;-84
2021/04/27 06:21:07;;;;;;;9.68;3.65;;;;;;;;;;5071444;28;20508;-85
2021/04/27 06:23:34;;;;;;;6.20;3.20;;;;;;;;;;5072256;28;20376;-85
2021/04/27 06:26:00;;;;;;;4.87;3.37;;;;;;;;;;5070540;28;20401;-84
2021/04/27 06:28:26;;;;;;;6.97;3.33;;;;;;;;;;5072699;28;20889;-85
2021/04/27 06:30:52;;;;;;;5.60;3.20;;;;;;;;;;5073076;28;20372;-85
2021/04/27 06:33:18;;;;;;;4.97;3.38;;;;;;;;;;5072786;28;20356;-85
2021/04/27 06:35:44;;;;;;;5.72;3.20;;;;;;;;;;5090509;28;20364;-85
2021/04/27 06:38:15;;;;;;;5.05;3.05;;;;;;;;;;5090558;28;20376;-85
2021/04/27 06:40:41;;;;;;;27.55;5.03;;;;;;;;;;5091233;28;20394;-85
2021/04/27 06:43:07;;;;;;;7.72;3.33;;;;;;;;;;5072749;28;20809;-85
2021/04/27 06:45:34;;;;;;;6.32;3.20;;;;;;;;;;5091596;28;20382;-85
2021/04/27 06:48:00;;;;;;;7.70;3.30;;;;;;;;;;5073378;28;20790;-85
2021/04/27 06:50:26;;;;;;;5.30;3.08;;;;;;;;;;5091738;28;20392;-85
2021/04/27 06:52:52;;;;;;;4.38;2.95;;;;;;;;;;5072966;28;20387;-85
2021/04/27 06:55:18;;;;;;;5.25;3.55;;;;;;;;;;5073134;28;20847;-85
2021/04/27 06:57:44;;;;;;;5.93;3.22;;;;;;;;;;5091078;28;20433;-85
2021/04/27 07:00:10;;;;;;;6.50;2.70;;;;;;;;;;5073008;28;20892;-85
2021/04/27 07:02:36;;;;;;;5.47;3.10;;;;;;;;;;5090881;28;20530;-85
2021/04/27 07:05:03;;;;;;;4.25;2.70;;;;;;;;;;5090963;28;20850;-85
2021/04/27 07:07:29;;;;;;;4.30;2.88;;;;;;;;;;5090506;28;20727;-85
2021/04/27 07:09:55;;;;;;;3.83;2.78;;;;;;;;;;5072585;28;20372;-85
2021/04/27 07:12:22;;;;;;;5.97;2.63;;;;;;;;;;5090415;28;20372;-85
2021/04/27 07:14:48;;;;;;;8.65;2.95;;;;;;;;;;5090536;28;20372;-85
2021/04/27 07:17:14;;;;;;;4.18;2.40;;;;;;;;;;5090294;28;20451;-85
2021/04/27 07:19:40;;;;;;;5.03;2.33;;;;;;;;;;5090070;28;20463;-84
2021/04/27 07:22:06;;;;;;;4.70;2.50;;;;;;;;;;5090004;28;20384;-85
2021/04/27 07:24:32;;;;;;;4.30;2.30;;;;;;;;;;5072613;28;20371;-85
2021/04/27 07:26:58;;;;;;;6.78;2.38;;;;;;;;;;5092922;28;20364;-85
2021/04/27 07:29:25;;;;;;;5.35;2.50;;;;;;;;;;5076719;28;20960;-85
2021/04/27 07:31:51;;;;;;;4.72;2.22;;;;;;;;;;5094321;28;20467;-85
2021/04/27 07:34:17;;;;;;;4.18;2.20;;;;;;;;;;5094289;28;20502;-85
2021/04/27 07:36:43;;;;;;;4.00;2.20;;;;;;;;;;5075580;28;20461;-85
2021/04/27 07:39:10;;;;;;;4.30;2.33;;;;;;;;;;5094026;28;20374;-85
2021/04/27 07:41:36;;;;;;;4.05;2.40;;;;;;;;;;5094026;28;20396;-85
2021/04/27 07:44:02;;;;;;;3.80;1.98;;;;;;;;;;5095159;28;20372;-84
2021/04/27 07:46:28;;;;;;;3.55;2.25;;;;;;;;;;5075445;28;20368;-85
2021/04/27 07:48:54;;;;;;;3.90;1.90;;;;;;;;;;5075760;28;20781;-85
2021/04/27 07:51:20;;;;;;;6.50;2.17;;;;;;;;;;5094356;28;20360;-86
2021/04/27 07:53:46;;;;;;;15.95;3.33;;;;;;;;;;5093660;28;20431;-84
2021/04/27 07:56:12;;;;;;;5.55;2.45;;;;;;;;;;5093357;28;20862;-85
2021/04/27 07:58:38;;;;;;;4.70;2.30;;;;;;;;;;5094810;28;20379;-84
2021/04/27 08:01:05;;;;;;;7.22;2.60;;;;;;;;;;5093241;28;20384;-85
2021/04/27 08:03:31;;;;;;;5.40;2.58;;;;;;;;;;5091780;28;20387;-83
2021/04/27 08:05:57;;;;;;;4.55;2.05;;;;;;;;;;5092429;28;20369;-87
2021/04/27 08:08:23;;;;;;;3.88;2.30;;;;;;;;;;5075010;28;20456;-87
2021/04/27 08:10:49;;;;;;;3.30;2.20;;;;;;;;;;5092937;28;20368;-83
2021/04/27 08:13:15;;;;;;;4.05;2.20;;;;;;;;;;5092843;28;20430;-84
2021/04/27 08:15:41;;;;;;;3.53;2.20;;;;;;;;;;5074200;28;20885;-82
2021/04/27 08:18:08;;;;;;;3.80;2.40;;;;;;;;;;5092413;28;20419;-83
2021/04/27 08:20:34;;;;;;;4.45;2.20;;;;;;;;;;5092989;28;20369;-82
2021/04/27 08:23:00;;;;;;;4.10;2.25;;;;;;;;;;5092082;28;20396;-82
2021/04/27 08:25:27;;;;;;;3.03;2.00;;;;;;;;;;5092990;28;20877;-82
2021/04/27 08:27:53;;;;;;;3.72;1.90;;;;;;;;;;5092464;28;20379;-81
2021/04/27 08:30:21;;;;;;;2.10;1.70;;;;;;;;;;5074589;28;20404;-83
2021/04/27 08:32:47;;;;;;;3.83;1.90;;;;;;;;;;5092279;28;20423;-82
2021/04/27 08:35:13;;;;;;;4.68;1.83;;;;;;;;;;5092669;28;20400;-83
2021/04/27 08:37:40;;;;;;;6.70;1.95;;;;;;;;;;5091619;28;20443;-83
2021/04/27 08:40:07;;;;;;;3.17;1.50;;;;;;;;;;5074264;28;20384;-83
2021/04/27 08:42:34;;;;;;;11.63;2.60;;;;;;;;;;5074007;28;20424;-83
2021/04/27 08:45:01;;;;;;;3.67;1.90;;;;;;;;;;5074404;28;20364;-83
2021/04/27 08:47:28;;;;;;;4.95;2.10;;;;;;;;;;5092348;28;20858;-83
2021/04/27 08:49:54;;;;;;;3.22;1.65;;;;;;;;;;5090664;28;20385;-83
2021/04/27 08:52:20;;;;;;;5.35;1.80;;;;;;;;;;5112665;28;20438;-84
2021/04/27 08:54:46;;;;;;;5.53;2.07;;;;;;;;;;5112503;28;20757;-83
2021/04/27 08:57:13;;;;;;;3.50;1.90;;;;;;;;;;5105277;28;20368;-85
2021/04/27 08:59:40;;;;;;;4.15;1.88;;;;;;;;;;5091347;28;20372;-83
2021/04/27 09:02:06;;;;;;;5.78;1.80;;;;;;;;;;5092172;28;20503;-84
2021/04/27 09:04:46;;;;;;;3.22;1.85;;;;;;;;;;5092775;28;20447;-82
2021/04/27 09:07:12;;;;;;;2.95;1.77;;;;;;;;;;5092315;28;20360;-83
2021/04/27 09:09:39;;;;;;;3.38;1.98;;;;;;;;;;5092453;28;20839;-83
2021/04/27 09:12:05;;;;;;;4.25;1.90;;;;;;;;;;5098569;28;20437;-85
2021/04/27 09:14:34;;;;;;;4.17;1.90;;;;;;;;;;5102261;28;20358;-83
2021/04/27 09:17:01;;;;;;;10.25;2.30;;;;;;;;;;5081393;28;20754;-83
2021/04/27 09:19:29;;;;;;;5.55;2.10;;;;;;;;;;5093583;28;20379;-83
2021/04/27 09:22:03;;;;;;;4.05;1.80;;;;;;;;;;5094656;28;20403;-83
2021/04/27 09:24:29;;;;;;;4.50;1.58;;;;;;;;;;5094907;28;20455;-83
2021/04/27 09:26:59;;;;;;;3.00;1.70;;;;;;;;;;5076035;28;20422;-83
2021/04/27 09:29:34;;;;;;;5.78;1.83;;;;;;;;;;5093455;28;20371;-83
2021/04/27 09:32:00;;;;;;;3.80;1.80;;;;;;;;;;5091085;28;20447;-82
2021/04/27 09:34:34;;;;;;;3.88;1.98;;;;;;;;;;5092138;28;20372;-84
2021/04/27 09:37:01;;;;;;;4.63;1.88;;;;;;;;;;5090886;28;20388;-83
2021/04/27 09:39:32;;;;;;;1.70;1.60;;;;;;;;;;5090502;28;20410;-83
2021/04/27 09:41:59;;;;;;;4.28;2.00;;;;;;;;;;5090772;28;20388;-83
2021/04/27 09:44:29;;;;;;;2.92;1.80;;;;;;;;;;5090530;28;20360;-83
2021/04/27 09:47:13;;;;;;;4.72;1.70;;;;;;;;;;5071358;28;20375;-83
2021/04/27 09:49:40;;;;;;;24.33;3.42;;;;;;;;;;5070121;28;20896;-85
2021/04/27 09:52:08;;;;;;;5.23;1.83;;;;;;;;;;5090614;28;20519;-84
2021/04/27 09:54:34;;;;;;;10.13;2.58;;;;;;;;;;5090949;28;20440;-83
2021/04/27 09:57:00;;;;;;;2.97;1.75;;;;;;;;;;5090633;28;20407;-83
2021/04/27 09:59:31;;;;;;;2.78;1.92;;;;;;;;;;5090963;28;20380;-84
2021/04/27 10:02:01;;;;;;;3.65;1.75;;;;;;;;;;5094984;28;20403;-80
2021/04/27 10:04:27;;;;;;;3.20;1.63;;;;;;;;;;5082716;28;20850;-80
2021/04/27 10:06:53;;;;;;;4.80;1.80;;;;;;;;;;5090871;28;20372;-91
2021/04/27 10:09:20;;;;;;;1.83;1.35;;;;;;;;;;5072646;28;20381;-88
2021/04/27 10:11:47;;;;;;;10.48;2.15;;;;;;;;;;5073526;28;20765;-89
2021/04/27 10:14:13;;;;;;;1.95;1.52;;;;;;;;;;5091318;28;20383;-89
2021/04/27 10:16:40;;;;;;;2.50;1.60;;;;;;;;;;5072648;28;20407;-88
2021/04/27 10:19:07;;;;;;;3.60;1.40;;;;;;;;;;5090415;28;20380;-86
2021/04/27 10:21:34;;;;;;;4.80;1.60;;;;;;;;;;5091071;28;20396;-85
2021/04/27 10:24:01;;;;;;;4.53;1.58;;;;;;;;;;5091606;28;20380;-87
2021/04/27 10:26:27;;;;;;;26.88;3.97;;;;;;;;;;5072876;28;20378;-87
2021/04/27 10:29:06;;;;;;;12.00;2.15;;;;;;;;;;5091070;28;20400;-87
2021/04/27 10:31:38;;;;;;;2.57;1.40;;;;;;;;;;5069535;28;20371;-88
2021/04/27 10:34:06;;;;;;;41.55;4.70;;;;;;;;;;5090089;28;20382;-85
2021/04/27 10:36:32;;;;;;;2.97;1.40;;;;;;;;;;5072541;28;20909;-85
2021/04/27 10:38:58;;;;;;;2.35;1.67;;;;;;;;;;5090788;28;20360;-83
2021/04/27 10:41:42;;;;;;;3.75;1.60;;;;;;;;;;5089539;28;20829;-88
2021/04/27 10:44:08;;;;;;;47.20;5.63;;;;;;;;;;5091170;28;20368;-83
2021/04/27 10:46:37;;;;;;;5.55;1.70;;;;;;;;;;5071680;28;20376;-85
2021/04/27 10:49:10;;;;;;;2.78;1.50;;;;;;;;;;5072498;28;20727;-86
2021/04/27 10:51:40;;;;;;;3.67;1.85;;;;;;;;;;5090300;28;20372;-85
2021/04/27 10:54:14;;;;;;;4.70;1.90;;;;;;;;;;5088898;28;20372;-84
2021/04/27 10:56:41;;;;;;;3.57;1.63;;;;;;;;;;5089546;28;20445;-86
2021/04/27 10:59:12;;;;;;;5.78;2.10;;;;;;;;;;5072756;28;20390;-87
2021/04/27 11:01:41;;;;;;;3.50;1.80;;;;;;;;;;5088439;28;20397;-85
2021/04/27 11:04:07;;;;;;;6.25;1.90;;;;;;;;;;5091845;28;20379;-86
2021/04/27 11:06:33;;;;;;;3.42;1.80;;;;;;;;;;5094720;28;20357;-84
2021/04/27 11:09:00;;;;;;;3.10;1.75;;;;;;;;;;5096544;28;20376;-86
2021/04/27 11:11:31;;;;;;;2.50;2.00;;;;;;;;;;5078242;28;20980;-83
2021/04/27 11:14:13;;;;;;;4.13;2.00;;;;;;;;;;5056617;28;20390;-87
2021/04/27 11:16:41;;;;;;;5.10;2.13;;;;;;;;;;5083666;28;20376;-84
2021/04/27 11:19:13;;;;;;;3.58;1.80;;;;;;;;;;5094513;28;20376;-86
2021/04/27 11:21:40;;;;;;;5.78;2.22;;;;;;;;;;5093551;28;20388;-86
2021/04/27 11:24:09;;;;;;;7.60;2.28;;;;;;;;;;5098110;28;20863;-85
2021/04/27 11:26:35;;;;;;;3.40;1.95;;;;;;;;;;5094461;28;20379;-87
2021/04/27 11:29:05;;;;;;;4.93;2.07;;;;;;;;;;5076887;28;20390;-87
2021/04/27 11:31:31;;;;;;;4.72;2.20;;;;;;;;;;5076338;28;20376;-88
2021/04/27 11:33:59;;;;;;;4.43;1.90;;;;;;;;;;5094258;28;20368;-88
2021/04/27 11:36:42;;;;;;;4.70;2.00;;;;;;;;;;5093936;28;20398;-85
2021/04/27 11:39:22;;;;;;;3.70;1.90;;;;;;;;;;5076450;28;20400;-85
2021/04/27 11:41:49;;;;;;;9.05;2.15;;;;;;;;;;5095315;28;20396;-83
2021/04/27 11:44:18;;;;;;;28.60;3.78;;;;;;;;;;5096671;28;20861;-84
2021/04/27 11:46:57;;;;;;;3.33;1.98;;;;;;;;;;5100093;28;20364;-87
2021/04/27 11:49:44;;;;;;;9.15;2.67;;;;;;;;;;5077657;28;20791;-88
2021/04/27 11:52:10;;;;;;;4.40;1.98;;;;;;;;;;5077381;28;20471;-89
2021/04/27 11:54:36;;;;;;;8.93;2.30;;;;;;;;;;5095644;28;20423;-87
2021/04/27 11:57:04;;;;;;;6.10;2.00;;;;;;;;;;5094544;28;20380;-88
2021/04/27 11:59:30;;;;;;;3.80;1.98;;;;;;;;;;5076750;28;20434;-83
2021/04/27 12:02:03;;;;;;;9.07;2.13;;;;;;;;;;5077813;28;20491;-89
2021/04/27 12:04:29;;;;;;;7.68;2.00;;;;;;;;;;5095709;28;20365;-85
2021/04/27 12:06:58;;;;;;;3.55;1.95;;;;;;;;;;5093707;28;20919;-85
2021/04/27 12:09:24;;;;;;;15.13;3.08;;;;;;;;;;5075757;28;20380;-88
2021/04/27 12:11:51;;;;;;;4.00;1.90;;;;;;;;;;5076286;28;20375;-86
2021/04/27 12:14:17;;;;;;;7.18;2.10;;;;;;;;;;5094313;28;20368;-85
2021/04/27 12:16:44;;;;;;;4.45;1.83;;;;;;;;;;5077012;28;20432;-88
2021/04/27 12:19:11;;;;;;;2.75;1.92;;;;;;;;;;5095295;28;20372;-89
2021/04/27 12:21:40;;;;;;;2.70;1.67;;;;;;;;;;5075876;28;20384;-89
2021/04/27 12:24:17;;;;;;;17.27;2.45;;;;;;;;;;5094192;28;20862;-86
2021/04/27 12:26:45;;;;;;;2.75;1.50;;;;;;;;;;5094417;28;20454;-86
2021/04/27 12:29:12;;;;;;;24.70;3.58;;;;;;;;;;5094521;28;20352;-87
2021/04/27 12:31:38;;;;;;;11.40;2.50;;;;;;;;;;5076254;28;20452;-87
2021/04/27 12:34:06;;;;;;;6.40;1.77;;;;;;;;;;5095861;28;20441;-87
2021/04/27 12:36:40;;;;;;;3.22;2.00;;;;;;;;;;5076664;28;20379;-91
2021/04/27 12:39:24;;;;;;;397.75;41.78;;;;;;;;;;5075670;28;20396;-86
2021/04/27 12:41:51;;;;;;;5.13;1.80;;;;;;;;;;5075118;28;20423;-88
2021/04/27 12:44:31;;;;;;;8.68;2.38;;;;;;;;;;5093409;28;20372;-88
2021/04/27 12:46:57;;;;;;;6.13;2.10;;;;;;;;;;5093493;28;20353;-86
2021/04/27 12:49:34;;;;;;;8.18;2.00;;;;;;;;;;5075566;28;20357;-90
2021/04/27 12:52:13;;;;;;;4.15;1.85;;;;;;;;;;5070918;28;20510;-88
2021/04/27 12:54:41;;;;;;;9.65;2.38;;;;;;;;;;5075714;28;20376;-89
2021/04/27 12:57:15;;;;;;;8.30;2.40;;;;;;;;;;5074775;28;20528;-83
2021/04/27 12:59:42;;;;;;;5.18;2.35;;;;;;;;;;5074320;28;20373;-84
2021/04/27 13:02:10;;;;;;;4.75;2.08;;;;;;;;;;5091985;28;20396;-84
2021/04/27 13:04:45;;;;;;;26.63;4.07;;;;;;;;;;5074453;28;20390;-84
2021/04/27 13:07:24;;;;;;;29.65;4.45;;;;;;;;;;5087503;28;20484;-82
2021/04/27 13:09:51;;;;;;;4.10;2.20;;;;;;;;;;5073574;28;20368;-84
2021/04/27 13:12:18;;;;;;;3.78;2.28;;;;;;;;;;5092027;28;20411;-84
2021/04/27 13:14:47;;;;;;;3.00;2.33;;;;;;;;;;5091732;28;20371;-84
2021/04/27 13:17:33;;;;;;;10.95;2.50;;;;;;;;;;5091106;28;20368;-84
2021/04/27 13:20:02;;;;;;;3.25;2.10;;;;;;;;;;5069218;28;20440;-83
2021/04/27 13:22:33;;;;;;;11.15;2.75;;;;;;;;;;5086484;28;20693;-83
2021/04/27 13:25:04;;;;;;;7.50;2.10;;;;;;;;;;5088304;28;20535;-84
2021/04/27 13:27:31;;;;;;;14.32;3.45;;;;;;;;;;5088077;28;20449;-86
2021/04/27 13:30:11;;;;;;;5.50;2.72;;;;;;;;;;5071068;28;20430;-84
2021/04/27 13:32:38;;;;;;;4.30;2.40;;;;;;;;;;5089627;28;20365;-85
2021/04/27 13:35:20;;;;;;;5.90;2.40;;;;;;;;;;5090227;28;20464;-84
2021/04/27 13:37:47;;;;;;;74.55;9.02;;;;;;;;;;5091213;28;20426;-84
2021/04/27 13:40:13;;;;;;;4.43;2.25;;;;;;;;;;5092002;28;20375;-84
2021/04/27 13:42:39;;;;;;;19.20;3.67;;;;;;;;;;5074565;28;20456;-83
2021/04/27 13:45:06;;;;;;;6.03;2.45;;;;;;;;;;5079494;28;20734;-82
2021/04/27 13:47:33;;;;;;;7.30;2.28;;;;;;;;;;5077276;28;20738;-83
2021/04/27 13:49:59;;;;;;;6.75;2.30;;;;;;;;;;5093407;28;20369;-83
2021/04/27 13:52:25;;;;;;;21.30;3.63;;;;;;;;;;5094010;28;20373;-84
2021/04/27 13:54:53;;;;;;;5.50;2.72;;;;;;;;;;5094362;28;20377;-83
2021/04/27 13:57:19;;;;;;;6.45;2.45;;;;;;;;;;5092550;28;20380;-84
2021/04/27 13:59:45;;;;;;;5.10;1.90;;;;;;;;;;5091748;28;20376;-83
2021/04/27 14:02:11;;;;;;;11.20;2.87;;;;;;;;;;5090058;28;20727;-84
2021/04/27 14:04:38;;;;;;;3.03;1.73;;;;;;;;;;5090173;28;20407;-82
2021/04/27 14:07:04;;;;;;;4.32;2.10;;;;;;;;;;5090347;28;20893;-83
2021/04/27 14:09:30;;;;;;;3.92;2.38;;;;;;;;;;5090969;28;20448;-84
2021/04/27 14:11:56;;;;;;;4.13;2.00;;;;;;;;;;5089866;28;20368;-83
2021/04/27 14:14:22;;;;;;;119.35;11.10;;;;;;;;;;5072400;28;20432;-83
2021/04/27 14:16:48;;;;;;;4.53;2.30;;;;;;;;;;5090911;28;20716;-82
2021/04/27 14:19:14;;;;;;;6.22;2.15;;;;;;;;;;5072654;28;20390;-82
2021/04/27 14:21:40;;;;;;;4.13;2.30;;;;;;;;;;5072594;28;20456;-82
2021/04/27 14:24:06;;;;;;;4.65;2.50;;;;;;;;;;5090814;28;20364;-83
2021/04/27 14:26:32;;;;;;;5.65;2.20;;;;;;;;;;5091070;28;20356;-83
2021/04/27 14:28:58;;;;;;;3.35;2.22;;;;;;;;;;5072926;28;20432;-83
2021/04/27 14:31:24;;;;;;;16.75;3.33;;;;;;;;;;5090895;28;20895;-83
2021/04/27 14:33:50;;;;;;;126.88;12.13;;;;;;;;;;5072557;28;20882;-83
2021/04/27 14:36:16;;;;;;;18.73;3.42;;;;;;;;;;5071920;28;20471;-82
2021/04/27 14:38:45;;;;;;;12.23;2.80;;;;;;;;;;5090719;28;20386;-82
2021/04/27 14:41:11;;;;;;;16.23;3.05;;;;;;;;;;5089614;28;20392;-82
2021/04/27 14:43:37;;;;;;;4.75;2.53;;;;;;;;;;5090179;28;20465;-82